Xanthi, Greece
Current Conditions -  °F | °C
As of 10:20 PM on Wednesday 26 Nov 2014 (Local Time) from LGKV Reporting Station
Few Clouds Few Clouds  
Wind Chill: 30°   Ceiling: Unl
Heat Index: 34°   Visibility: 6mi
Dew Point: 28°   Wind: 5mph
Humidity: 81%   Direction: 40°NE
Pressure: 30.24"   Gusts: NA
Location:  41.14°N, 24.88°E
Report Text: LGKV 262020Z 04004KT 9999 FEW030 01/M02 Q1024
Loading
Personal Weather Stations






























Interactive Weather Map New forecast layout! Learn more

10-Day Weather Forecast

Advertisements
Track Severe Weather on mobile